sensor_id;sensor_type;location;lat;lon;timestamp;temperature;humidity
21121;DHT22;12519;43.318;21.898;2023-02-05T00:00:54;0.9;89.0
21121;DHT22;12519;43.318;21.898;2023-02-05T00:05:31;0.8;89.0
21121;DHT22;12519;43.318;21.898;2023-02-05T00:10:08;0.8;89.0
21121;DHT22;12519;43.318;21.898;2023-02-05T00:14:45;0.8;88.0
21121;DHT22;12519;43.318;21.898;2023-02-05T00:19:22;0.8;88.0
21121;DHT22;12519;43.318;21.898;2023-02-05T00:23:59;0.8;88.0
21121;DHT22;12519;43.318;21.898;2023-02-05T00:28:37;0.8;88.0
21121;DHT22;12519;43.318;21.898;2023-02-05T00:33:13;0.7;87.0
21121;DHT22;12519;43.318;21.898;2023-02-05T00:37:50;0.7;87.0
21121;DHT22;12519;43.318;21.898;2023-02-05T00:42:27;0.7;87.0
21121;DHT22;12519;43.318;21.898;2023-02-05T00:47:04;0.7;87.0
21121;DHT22;12519;43.318;21.898;2023-02-05T00:51:40;0.7;87.0
21121;DHT22;12519;43.318;21.898;2023-02-05T00:56:17;0.7;87.0
21121;DHT22;12519;43.318;21.898;2023-02-05T01:00:57;0.7;87.0
21121;DHT22;12519;43.318;21.898;2023-02-05T01:05:37;0.6;87.0
21121;DHT22;12519;43.318;21.898;2023-02-05T01:10:17;0.6;87.0
21121;DHT22;12519;43.318;21.898;2023-02-05T01:14:54;0.6;87.0
21121;DHT22;12519;43.318;21.898;2023-02-05T01:19:32;0.6;87.0
21121;DHT22;12519;43.318;21.898;2023-02-05T01:24:11;0.5;87.0
21121;DHT22;12519;43.318;21.898;2023-02-05T01:28:48;0.5;87.0
21121;DHT22;12519;43.318;21.898;2023-02-05T01:33:25;0.4;86.0
21121;DHT22;12519;43.318;21.898;2023-02-05T01:38:02;0.4;86.0
21121;DHT22;12519;43.318;21.898;2023-02-05T01:42:38;0.4;87.0
21121;DHT22;12519;43.318;21.898;2023-02-05T01:47:15;0.4;87.0
21121;DHT22;12519;43.318;21.898;2023-02-05T01:52:02;0.4;87.0
21121;DHT22;12519;43.318;21.898;2023-02-05T01:56:55;0.3;87.0
21121;DHT22;12519;43.318;21.898;2023-02-05T02:01:41;0.3;87.0
21121;DHT22;12519;43.318;21.898;2023-02-05T02:06:19;0.3;87.0
21121;DHT22;12519;43.318;21.898;2023-02-05T02:11:04;0.3;87.0
21121;DHT22;12519;43.318;21.898;2023-02-05T02:27:33;0.2;87.0
21121;DHT22;12519;43.318;21.898;2023-02-05T02:32:37;0.2;87.0
21121;DHT22;12519;43.318;21.898;2023-02-05T02:37:48;0.2;87.0
21121;DHT22;12519;43.318;21.898;2023-02-05T02:42:50;0.2;87.0
21121;DHT22;12519;43.318;21.898;2023-02-05T02:47:51;0.2;87.0
21121;DHT22;12519;43.318;21.898;2023-02-05T02:52:46;0.1;87.0
21121;DHT22;12519;43.318;21.898;2023-02-05T02:57:30;0.1;87.0
21121;DHT22;12519;43.318;21.898;2023-02-05T03:02:16;0.1;87.0
21121;DHT22;12519;43.318;21.898;2023-02-05T03:07:21;0.1;88.0
21121;DHT22;12519;43.318;21.898;2023-02-05T03:11:58;0.1;88.0
21121;DHT22;12519;43.318;21.898;2023-02-05T03:26:00;-0.2;88.0
21121;DHT22;12519;43.318;21.898;2023-02-05T03:31:05;-0.2;88.0
21121;DHT22;12519;43.318;21.898;2023-02-05T03:36:19;-0.2;88.0
21121;DHT22;12519;43.318;21.898;2023-02-05T03:41:48;-0.2;88.0
21121;DHT22;12519;43.318;21.898;2023-02-05T03:47:11;-0.2;88.0
21121;DHT22;12519;43.318;21.898;2023-02-05T03:52:30;-0.2;88.0
21121;DHT22;12519;43.318;21.898;2023-02-05T03:57:32;-0.2;88.0
21121;DHT22;12519;43.318;21.898;2023-02-05T04:02:21;-0.2;88.0
21121;DHT22;12519;43.318;21.898;2023-02-05T04:07:02;-0.2;88.0
21121;DHT22;12519;43.318;21.898;2023-02-05T04:11:40;-0.2;88.0
21121;DHT22;12519;43.318;21.898;2023-02-05T04:25:30;-0.5;89.0
21121;DHT22;12519;43.318;21.898;2023-02-05T04:30:12;-0.5;89.0
21121;DHT22;12519;43.318;21.898;2023-02-05T04:34:49;-0.5;89.0
21121;DHT22;12519;43.318;21.898;2023-02-05T04:39:26;-0.5;89.0
21121;DHT22;12519;43.318;21.898;2023-02-05T04:44:02;-0.6;89.0
21121;DHT22;12519;43.318;21.898;2023-02-05T04:48:40;-0.6;89.0
21121;DHT22;12519;43.318;21.898;2023-02-05T04:53:16;-0.6;89.0
21121;DHT22;12519;43.318;21.898;2023-02-05T04:57:53;-0.6;89.0
21121;DHT22;12519;43.318;21.898;2023-02-05T05:02:29;-0.6;89.0
21121;DHT22;12519;43.318;21.898;2023-02-05T05:07:05;0.3;90.0
21121;DHT22;12519;43.318;21.898;2023-02-05T05:11:42;0.3;90.0
21121;DHT22;12519;43.318;21.898;2023-02-05T05:16:19;1.1;90.0
21121;DHT22;12519;43.318;21.898;2023-02-05T05:20:56;1.1;90.0
21121;DHT22;12519;43.318;21.898;2023-02-05T05:25:33;0.4;89.0
21121;DHT22;12519;43.318;21.898;2023-02-05T05:30:15;0.4;89.0
21121;DHT22;12519;43.318;21.898;2023-02-05T05:34:52;-0.3;88.0
21121;DHT22;12519;43.318;21.898;2023-02-05T05:39:29;-0.3;88.0
21121;DHT22;12519;43.318;21.898;2023-02-05T05:44:07;-0.4;90.0
21121;DHT22;12519;43.318;21.898;2023-02-05T05:48:44;-0.4;90.0
21121;DHT22;12519;43.318;21.898;2023-02-05T05:53:21;-0.6;90.0
21121;DHT22;12519;43.318;21.898;2023-02-05T05:57:58;-0.6;90.0
21121;DHT22;12519;43.318;21.898;2023-02-05T06:02:41;-0.6;90.0
21121;DHT22;12519;43.318;21.898;2023-02-05T06:07:17;-0.6;87.0
21121;DHT22;12519;43.318;21.898;2023-02-05T06:11:54;-0.6;87.0
21121;DHT22;12519;43.318;21.898;2023-02-05T06:25:44;-0.5;87.0
21121;DHT22;12519;43.318;21.898;2023-02-05T06:30:21;-0.5;87.0
21121;DHT22;12519;43.318;21.898;2023-02-05T06:34:58;-0.5;91.0
21121;DHT22;12519;43.318;21.898;2023-02-05T06:39:35;-0.5;91.0
21121;DHT22;12519;43.318;21.898;2023-02-05T06:44:12;-0.5;91.0
21121;DHT22;12519;43.318;21.898;2023-02-05T06:48:49;-0.5;91.0
21121;DHT22;12519;43.318;21.898;2023-02-05T06:53:26;-0.5;91.0
21121;DHT22;12519;43.318;21.898;2023-02-05T06:58:04;-0.5;91.0
21121;DHT22;12519;43.318;21.898;2023-02-05T07:02:41;-0.5;91.0
21121;DHT22;12519;43.318;21.898;2023-02-05T07:07:18;-0.4;90.0
21121;DHT22;12519;43.318;21.898;2023-02-05T07:11:55;-0.4;90.0
21121;DHT22;12519;43.318;21.898;2023-02-05T07:16:32;-0.4;90.0
21121;DHT22;12519;43.318;21.898;2023-02-05T07:21:16;-0.4;90.0
21121;DHT22;12519;43.318;21.898;2023-02-05T07:25:52;-0.4;91.0
21121;DHT22;12519;43.318;21.898;2023-02-05T07:30:28;-0.4;91.0
21121;DHT22;12519;43.318;21.898;2023-02-05T07:35:06;-0.5;91.0
21121;DHT22;12519;43.318;21.898;2023-02-05T07:39:42;-0.5;91.0
21121;DHT22;12519;43.318;21.898;2023-02-05T07:44:19;-0.6;92.0
21121;DHT22;12519;43.318;21.898;2023-02-05T07:48:56;-0.6;92.0
21121;DHT22;12519;43.318;21.898;2023-02-05T07:53:32;-0.7;93.0
21121;DHT22;12519;43.318;21.898;2023-02-05T07:58:09;-0.7;93.0
21121;DHT22;12519;43.318;21.898;2023-02-05T08:02:46;-0.7;93.0
21121;DHT22;12519;43.318;21.898;2023-02-05T08:07:23;-0.8;93.0
21121;DHT22;12519;43.318;21.898;2023-02-05T08:11:59;-0.8;93.0
21121;DHT22;12519;43.318;21.898;2023-02-05T08:16:35;-0.9;94.0
21121;DHT22;12519;43.318;21.898;2023-02-05T08:21:11;-0.9;94.0
21121;DHT22;12519;43.318;21.898;2023-02-05T08:25:53;-0.8;93.0
21121;DHT22;12519;43.318;21.898;2023-02-05T08:30:32;-0.8;93.0
21121;DHT22;12519;43.318;21.898;2023-02-05T08:35:08;-0.8;92.0
21121;DHT22;12519;43.318;21.898;2023-02-05T08:39:44;-0.8;92.0
21121;DHT22;12519;43.318;21.898;2023-02-05T08:44:20;-0.8;91.0
21121;DHT22;12519;43.318;21.898;2023-02-05T08:48:57;-0.8;91.0
21121;DHT22;12519;43.318;21.898;2023-02-05T08:53:33;-0.7;90.0
21121;DHT22;12519;43.318;21.898;2023-02-05T08:58:10;-0.7;90.0
21121;DHT22;12519;43.318;21.898;2023-02-05T09:02:46;-0.7;90.0
21121;DHT22;12519;43.318;21.898;2023-02-05T09:07:23;-0.7;90.0
21121;DHT22;12519;43.318;21.898;2023-02-05T09:12:00;-0.7;90.0
21121;DHT22;12519;43.318;21.898;2023-02-05T09:16:39;-0.7;90.0
21121;DHT22;12519;43.318;21.898;2023-02-05T09:21:16;-0.7;90.0
21121;DHT22;12519;43.318;21.898;2023-02-05T09:25:57;-0.6;89.0
21121;DHT22;12519;43.318;21.898;2023-02-05T09:30:36;-0.6;89.0
21121;DHT22;12519;43.318;21.898;2023-02-05T09:35:20;-0.4;89.0
21121;DHT22;12519;43.318;21.898;2023-02-05T09:39:57;-0.4;89.0
21121;DHT22;12519;43.318;21.898;2023-02-05T09:45:15;-0.4;88.0
21121;DHT22;12519;43.318;21.898;2023-02-05T09:50:30;-0.4;88.0
21121;DHT22;12519;43.318;21.898;2023-02-05T09:55:25;-0.4;88.0
21121;DHT22;12519;43.318;21.898;2023-02-05T10:00:27;-0.4;88.0
21121;DHT22;12519;43.318;21.898;2023-02-05T10:05:15;-0.3;88.0
21121;DHT22;12519;43.318;21.898;2023-02-05T10:10:25;-0.3;88.0
21121;DHT22;12519;43.318;21.898;2023-02-05T10:15:45;-0.2;88.0
21121;DHT22;12519;43.318;21.898;2023-02-05T10:21:07;-0.2;88.0
21121;DHT22;12519;43.318;21.898;2023-02-05T10:26:12;-0.2;87.0
21121;DHT22;12519;43.318;21.898;2023-02-05T10:31:09;-0.2;87.0
21121;DHT22;12519;43.318;21.898;2023-02-05T10:46:16;0.4;85.0
21121;DHT22;12519;43.318;21.898;2023-02-05T10:51:03;0.4;85.0
21121;DHT22;12519;43.318;21.898;2023-02-05T10:55:45;0.4;84.0
21121;DHT22;12519;43.318;21.898;2023-02-05T11:00:24;0.4;84.0
21121;DHT22;12519;43.318;21.898;2023-02-05T11:05:20;0.4;83.0
21121;DHT22;12519;43.318;21.898;2023-02-05T11:10:21;0.4;83.0
21121;DHT22;12519;43.318;21.898;2023-02-05T11:15:22;0.4;82.0
21121;DHT22;12519;43.318;21.898;2023-02-05T11:20:28;0.4;82.0
21121;DHT22;12519;43.318;21.898;2023-02-05T11:25:18;0.4;81.0
21121;DHT22;12519;43.318;21.898;2023-02-05T11:30:23;0.4;81.0
21121;DHT22;12519;43.318;21.898;2023-02-05T11:35:26;0.3;81.0
21121;DHT22;12519;43.318;21.898;2023-02-05T11:40:23;0.3;81.0
21121;DHT22;12519;43.318;21.898;2023-02-05T11:45:16;0.4;81.0
21121;DHT22;12519;43.318;21.898;2023-02-05T11:49:57;0.4;81.0
21121;DHT22;12519;43.318;21.898;2023-02-05T11:54:46;0.6;80.0
21121;DHT22;12519;43.318;21.898;2023-02-05T11:59:23;0.6;80.0
21121;DHT22;12519;43.318;21.898;2023-02-05T12:04:18;0.8;80.0
21121;DHT22;12519;43.318;21.898;2023-02-05T12:09:00;0.8;80.0
21121;DHT22;12519;43.318;21.898;2023-02-05T12:14:12;1.0;81.0
21121;DHT22;12519;43.318;21.898;2023-02-05T12:19:27;1.0;81.0
21121;DHT22;12519;43.318;21.898;2023-02-05T12:25:16;0.8;80.0
21121;DHT22;12519;43.318;21.898;2023-02-05T12:30:46;0.8;80.0
21121;DHT22;12519;43.318;21.898;2023-02-05T12:36:23;0.7;80.0
21121;DHT22;12519;43.318;21.898;2023-02-05T12:41:42;0.7;80.0
21121;DHT22;12519;43.318;21.898;2023-02-05T12:47:07;0.8;80.0
21121;DHT22;12519;43.318;21.898;2023-02-05T12:52:43;0.8;80.0
21121;DHT22;12519;43.318;21.898;2023-02-05T12:57:52;0.9;80.0
21121;DHT22;12519;43.318;21.898;2023-02-05T13:02:52;0.9;80.0
21121;DHT22;12519;43.318;21.898;2023-02-05T13:08:00;0.8;81.0
21121;DHT22;12519;43.318;21.898;2023-02-05T13:13:02;0.8;81.0
21121;DHT22;12519;43.318;21.898;2023-02-05T13:18:05;0.8;82.0
21121;DHT22;12519;43.318;21.898;2023-02-05T13:22:57;0.8;82.0
21121;DHT22;12519;43.318;21.898;2023-02-05T13:27:47;0.8;82.0
21121;DHT22;12519;43.318;21.898;2023-02-05T13:32:41;0.8;82.0
21121;DHT22;12519;43.318;21.898;2023-02-05T13:38:24;0.9;82.0
21121;DHT22;12519;43.318;21.898;2023-02-05T13:44:26;0.9;82.0
21121;DHT22;12519;43.318;21.898;2023-02-05T13:52:38;0.9;82.0
21121;DHT22;12519;43.318;21.898;2023-02-05T13:58:16;0.9;82.0
21121;DHT22;12519;43.318;21.898;2023-02-05T14:03:01;0.9;82.0
21121;DHT22;12519;43.318;21.898;2023-02-05T14:07:49;0.8;83.0
21121;DHT22;12519;43.318;21.898;2023-02-05T14:12:34;0.8;83.0
21121;DHT22;12519;43.318;21.898;2023-02-05T14:18:53;0.7;84.0
21121;DHT22;12519;43.318;21.898;2023-02-05T14:23:58;0.7;84.0
21121;DHT22;12519;43.318;21.898;2023-02-05T14:28:50;0.6;84.0
21121;DHT22;12519;43.318;21.898;2023-02-05T14:33:38;0.6;84.0
21121;DHT22;12519;43.318;21.898;2023-02-05T14:38:30;0.6;85.0
21121;DHT22;12519;43.318;21.898;2023-02-05T14:43:26;0.6;85.0
21121;DHT22;12519;43.318;21.898;2023-02-05T14:48:27;0.5;87.0
21121;DHT22;12519;43.318;21.898;2023-02-05T14:53:24;0.5;87.0
21121;DHT22;12519;43.318;21.898;2023-02-05T14:58:20;0.4;88.0
21121;DHT22;12519;43.318;21.898;2023-02-05T15:03:37;0.4;88.0
21121;DHT22;12519;43.318;21.898;2023-02-05T15:08:44;0.4;88.0
21121;DHT22;12519;43.318;21.898;2023-02-05T15:13:39;0.4;88.0
21121;DHT22;12519;43.318;21.898;2023-02-05T15:18:29;0.4;88.0
21121;DHT22;12519;43.318;21.898;2023-02-05T15:23:32;0.4;88.0
21121;DHT22;12519;43.318;21.898;2023-02-05T15:28:32;0.4;87.0
21121;DHT22;12519;43.318;21.898;2023-02-05T15:33:42;0.4;87.0
21121;DHT22;12519;43.318;21.898;2023-02-05T15:38:45;0.3;86.0
21121;DHT22;12519;43.318;21.898;2023-02-05T15:43:27;0.3;86.0
21121;DHT22;12519;43.318;21.898;2023-02-05T15:48:15;0.4;86.0
21121;DHT22;12519;43.318;21.898;2023-02-05T15:53:30;0.4;86.0
21121;DHT22;12519;43.318;21.898;2023-02-05T15:58:23;0.5;86.0
21121;DHT22;12519;43.318;21.898;2023-02-05T16:03:03;0.5;86.0
21121;DHT22;12519;43.318;21.898;2023-02-05T16:07:44;0.4;86.0
21121;DHT22;12519;43.318;21.898;2023-02-05T16:12:24;0.4;86.0
21121;DHT22;12519;43.318;21.898;2023-02-05T16:17:15;0.2;87.0
21121;DHT22;12519;43.318;21.898;2023-02-05T16:22:32;0.2;87.0
21121;DHT22;12519;43.318;21.898;2023-02-05T16:27:38;-0.0;89.0
21121;DHT22;12519;43.318;21.898;2023-02-05T16:32:37;-0.0;89.0
21121;DHT22;12519;43.318;21.898;2023-02-05T16:37:19;-0.3;91.0
21121;DHT22;12519;43.318;21.898;2023-02-05T16:42:13;-0.3;91.0
21121;DHT22;12519;43.318;21.898;2023-02-05T16:47:18;-0.2;91.0
21121;DHT22;12519;43.318;21.898;2023-02-05T16:51:55;-0.2;91.0
21121;DHT22;12519;43.318;21.898;2023-02-05T16:56:43;-0.2;92.0
21121;DHT22;12519;43.318;21.898;2023-02-05T17:01:41;-0.2;92.0
21121;DHT22;12519;43.318;21.898;2023-02-05T17:06:22;-0.2;91.0
21121;DHT22;12519;43.318;21.898;2023-02-05T17:11:36;-0.2;91.0
21121;DHT22;12519;43.318;21.898;2023-02-05T17:16:30;-0.1;91.0
21121;DHT22;12519;43.318;21.898;2023-02-05T17:21:27;-0.1;91.0
21121;DHT22;12519;43.318;21.898;2023-02-05T17:26:09;0.0;89.0
21121;DHT22;12519;43.318;21.898;2023-02-05T17:30:48;0.0;89.0
21121;DHT22;12519;43.318;21.898;2023-02-05T17:35:28;0.2;87.0
21121;DHT22;12519;43.318;21.898;2023-02-05T17:40:10;0.2;87.0
21121;DHT22;12519;43.318;21.898;2023-02-05T17:44:50;0.3;86.0
21121;DHT22;12519;43.318;21.898;2023-02-05T17:49:29;0.3;86.0
21121;DHT22;12519;43.318;21.898;2023-02-05T17:54:15;0.3;86.0
21121;DHT22;12519;43.318;21.898;2023-02-05T17:58:54;0.4;84.0
21121;DHT22;12519;43.318;21.898;2023-02-05T18:03:30;0.4;84.0
21121;DHT22;12519;43.318;21.898;2023-02-05T18:08:10;0.4;84.0
21121;DHT22;12519;43.318;21.898;2023-02-05T18:12:46;0.4;84.0
21121;DHT22;12519;43.318;21.898;2023-02-05T18:17:23;0.4;83.0
21121;DHT22;12519;43.318;21.898;2023-02-05T18:22:00;0.4;83.0
21121;DHT22;12519;43.318;21.898;2023-02-05T18:26:36;0.4;83.0
21121;DHT22;12519;43.318;21.898;2023-02-05T18:31:14;0.4;83.0
21121;DHT22;12519;43.318;21.898;2023-02-05T18:35:51;0.4;82.0
21121;DHT22;12519;43.318;21.898;2023-02-05T18:40:28;0.4;82.0
21121;DHT22;12519;43.318;21.898;2023-02-05T18:45:07;0.2;84.0
21121;DHT22;12519;43.318;21.898;2023-02-05T18:49:44;0.2;84.0
21121;DHT22;12519;43.318;21.898;2023-02-05T18:54:21;0.2;84.0
21121;DHT22;12519;43.318;21.898;2023-02-05T18:59:05;0.1;85.0
21121;DHT22;12519;43.318;21.898;2023-02-05T19:03:49;0.1;85.0
21121;DHT22;12519;43.318;21.898;2023-02-05T19:08:27;0.1;85.0
21121;DHT22;12519;43.318;21.898;2023-02-05T19:13:03;0.1;85.0
21121;DHT22;12519;43.318;21.898;2023-02-05T19:26:55;0.1;86.0
21121;DHT22;12519;43.318;21.898;2023-02-05T19:31:36;0.1;86.0
21121;DHT22;12519;43.318;21.898;2023-02-05T19:36:13;0.1;86.0
21121;DHT22;12519;43.318;21.898;2023-02-05T19:40:49;0.1;86.0
21121;DHT22;12519;43.318;21.898;2023-02-05T19:45:26;0.1;87.0
21121;DHT22;12519;43.318;21.898;2023-02-05T19:50:03;0.1;87.0
21121;DHT22;12519;43.318;21.898;2023-02-05T20:27:30;0.1;89.0
21121;DHT22;12519;43.318;21.898;2023-02-05T20:32:08;0.1;89.0
21121;DHT22;12519;43.318;21.898;2023-02-05T20:36:50;0.1;89.0
21121;DHT22;12519;43.318;21.898;2023-02-05T20:41:30;0.1;89.0
21121;DHT22;12519;43.318;21.898;2023-02-05T20:46:10;0.2;90.0
21121;DHT22;12519;43.318;21.898;2023-02-05T20:50:46;0.2;90.0
21121;DHT22;12519;43.318;21.898;2023-02-05T20:55:22;0.2;91.0
21121;DHT22;12519;43.318;21.898;2023-02-05T20:59:59;0.2;91.0
21121;DHT22;12519;43.318;21.898;2023-02-05T21:04:36;0.2;91.0
21121;DHT22;12519;43.318;21.898;2023-02-05T21:09:15;0.2;92.0
21121;DHT22;12519;43.318;21.898;2023-02-05T21:13:53;0.2;92.0
21121;DHT22;12519;43.318;21.898;2023-02-05T22:46:24;0.4;90.0
21121;DHT22;12519;43.318;21.898;2023-02-05T22:51:14;0.4;90.0
21121;DHT22;12519;43.318;21.898;2023-02-05T22:56:02;0.4;90.0
21121;DHT22;12519;43.318;21.898;2023-02-05T23:00:47;0.4;90.0
21121;DHT22;12519;43.318;21.898;2023-02-05T23:05:30;0.4;90.0
21121;DHT22;12519;43.318;21.898;2023-02-05T23:10:09;0.4;90.0
21121;DHT22;12519;43.318;21.898;2023-02-05T23:14:45;0.4;90.0
21121;DHT22;12519;43.318;21.898;2023-02-05T23:19:21;0.3;90.0
21121;DHT22;12519;43.318;21.898;2023-02-05T23:23:59;0.3;90.0
21121;DHT22;12519;43.318;21.898;2023-02-05T23:28:36;0.0;90.0
21121;DHT22;12519;43.318;21.898;2023-02-05T23:33:13;0.0;90.0
21121;DHT22;12519;43.318;21.898;2023-02-05T23:37:50;-0.3;91.0
21121;DHT22;12519;43.318;21.898;2023-02-05T23:42:26;-0.3;91.0
21121;DHT22;12519;43.318;21.898;2023-02-05T23:47:03;-0.2;90.0
21121;DHT22;12519;43.318;21.898;2023-02-05T23:51:41;-0.2;90.0
21121;DHT22;12519;43.318;21.898;2023-02-05T23:56:18;-0.1;90.0
